Time;durP1;ratioP1;P1;durP2;ratioP2;P2;SDS_P1;SDS_P2;PMS_P1;PMS_P2;Temp;Humidity;BMP_temperature;BMP_pressure;BME280_temperature;BME280_humidity;BME280_pressure;Samples;Min_cycle;Max_cycle;Signal;HPM_P1;HPM_P2
2021/04/04 00:00:01;;;;;;;16.60;6.60;;;;;;;3.58;60.74;101383.72;8855465;33;20330;-71
2021/04/04 00:05:15;;;;;;;15.47;6.30;;;;;;;3.50;61.02;101368.03;8857191;33;20283;-71
2021/04/04 00:10:18;;;;;;;18.80;7.70;;;;;;;3.45;61.53;101379.75;8856214;33;20234;-71
2021/04/04 00:15:20;;;;;;;20.13;6.55;;;;;;;3.50;61.95;101378.66;8881672;33;20241;-71
2021/04/04 00:20:24;;;;;;;16.08;7.32;;;;;;;3.55;62.01;101378.50;8866009;33;20222;-71
2021/04/04 00:25:26;;;;;;;20.38;8.55;;;;;;;3.60;61.73;101379.22;8855547;33;20229;-72
2021/04/04 00:30:28;;;;;;;12.73;7.00;;;;;;;3.58;61.84;101374.88;8855014;33;20238;-72
2021/04/04 00:35:31;;;;;;;15.80;6.85;;;;;;;3.63;61.89;101380.91;8855420;33;20230;-72
2021/04/04 00:40:36;;;;;;;11.50;6.78;;;;;;;3.64;61.95;101380.81;8854983;33;20230;-72
2021/04/04 00:45:40;;;;;;;16.17;7.57;;;;;;;3.67;61.80;101369.22;8855226;33;20722;-72
2021/04/04 00:50:43;;;;;;;16.97;7.30;;;;;;;3.76;61.73;101368.00;8854891;33;20636;-72
2021/04/04 00:55:46;;;;;;;23.60;7.90;;;;;;;3.81;61.82;101372.22;8855331;33;20604;-72
2021/04/04 01:00:48;;;;;;;19.50;6.27;;;;;;;3.90;61.46;101363.06;8854462;33;20265;-72
2021/04/04 01:05:55;;;;;;;14.37;6.40;;;;;;;3.92;61.19;101363.88;8854930;33;20227;-71
2021/04/04 01:10:58;;;;;;;18.48;6.53;;;;;;;4.07;60.47;101368.59;8854435;33;20881;-72
2021/04/04 01:16:06;;;;;;;13.00;6.33;;;;;;;4.05;60.53;101361.63;8888218;33;20233;-72
2021/04/04 01:21:14;;;;;;;17.02;6.07;;;;;;;4.12;60.39;101355.16;8914134;33;20233;-72
2021/04/04 01:26:30;;;;;;;13.60;6.10;;;;;;;4.07;60.24;101359.78;8914902;33;20226;-72
2021/04/04 01:31:34;;;;;;;14.83;6.27;;;;;;;4.16;60.33;101352.28;8915668;33;20664;-72
2021/04/04 01:36:39;;;;;;;15.20;6.60;;;;;;;4.39;60.18;101355.88;8887005;33;20232;-71
2021/04/04 01:41:43;;;;;;;15.27;6.13;;;;;;;4.50;59.81;101350.06;8912750;33;20232;-71
2021/04/04 01:46:48;;;;;;;13.30;6.13;;;;;;;4.41;59.93;101367.28;8912305;33;20734;-71
2021/04/04 01:51:50;;;;;;;16.40;5.43;;;;;;;4.37;59.85;101361.22;8912876;33;20252;-71
2021/04/04 01:56:55;;;;;;;13.70;6.25;;;;;;;4.40;60.54;101354.91;8912379;33;20656;-72
2021/04/04 02:02:00;;;;;;;18.73;5.53;;;;;;;4.47;60.54;101347.53;8912468;33;20232;-71
2021/04/04 02:07:03;;;;;;;14.82;5.85;;;;;;;4.53;60.65;101353.50;8911567;33;20240;-72
2021/04/04 02:12:07;;;;;;;9.87;5.60;;;;;;;4.43;60.62;101345.94;8911784;33;20750;-71
2021/04/04 02:17:10;;;;;;;14.05;6.28;;;;;;;4.34;60.59;101339.22;8887054;33;20582;-71
2021/04/04 02:22:13;;;;;;;16.08;5.72;;;;;;;4.38;59.99;101343.47;8913962;33;20217;-72
2021/04/04 02:27:15;;;;;;;11.53;6.00;;;;;;;4.23;59.86;101329.00;8911659;33;20232;-71
2021/04/04 02:32:21;;;;;;;14.63;6.10;;;;;;;4.32;60.18;101327.75;8911699;33;20749;-71
2021/04/04 02:37:24;;;;;;;13.68;6.18;;;;;;;4.30;61.08;101321.63;8911451;33;21505;-72
2021/04/04 02:42:29;;;;;;;13.30;5.93;;;;;;;4.32;60.96;101330.41;8916933;33;20225;-71
2021/04/04 02:47:38;;;;;;;17.00;5.53;;;;;;;4.33;60.79;101324.16;8916413;33;20229;-72
2021/04/04 02:52:44;;;;;;;15.07;6.77;;;;;;;4.26;59.94;101315.56;8915806;33;20232;-72
2021/04/04 02:57:48;;;;;;;17.27;5.82;;;;;;;4.35;60.34;101317.84;8916200;33;20229;-71
2021/04/04 03:02:54;;;;;;;14.77;5.80;;;;;;;4.36;60.12;101316.06;8917447;33;20225;-73
2021/04/04 03:07:58;;;;;;;11.82;5.15;;;;;;;4.57;58.99;101315.19;8843806;33;20256;-72
2021/04/04 03:13:01;;;;;;;13.93;4.67;;;;;;;4.68;58.13;101308.56;8856841;33;20222;-72
2021/04/04 03:18:06;;;;;;;12.40;5.60;;;;;;;4.74;57.88;101317.13;8855707;33;20994;-72
2021/04/04 03:23:09;;;;;;;11.47;4.43;;;;;;;4.66;58.29;101307.75;8856025;33;20219;-72
2021/04/04 03:28:12;;;;;;;18.00;5.17;;;;;;;4.59;59.30;101309.81;8855558;33;20214;-72
2021/04/04 03:33:18;;;;;;;14.07;4.83;;;;;;;4.49;58.59;101314.63;8845850;33;20230;-72
2021/04/04 03:38:25;;;;;;;9.85;4.53;;;;;;;4.59;59.05;101304.50;8853619;33;20900;-72
2021/04/04 03:43:32;;;;;;;14.30;4.60;;;;;;;4.53;59.12;101302.94;8855693;33;20226;-72
2021/04/04 03:48:36;;;;;;;10.30;4.20;;;;;;;4.53;59.37;101300.28;8855637;33;20233;-72
2021/04/04 03:53:43;;;;;;;15.35;4.70;;;;;;;4.60;58.98;101293.75;8855440;33;20229;-72
2021/04/04 03:58:48;;;;;;;12.68;4.80;;;;;;;4.63;58.80;101290.09;8855271;33;20230;-72
2021/04/04 04:03:52;;;;;;;14.93;4.93;;;;;;;4.71;59.22;101292.44;8855620;33;20222;-72
2021/04/04 04:08:55;;;;;;;14.52;4.57;;;;;;;4.45;59.77;101288.22;8853398;33;20230;-72
2021/04/04 04:14:00;;;;;;;17.30;5.57;;;;;;;4.51;59.75;101286.16;8854797;33;20246;-72
2021/04/04 04:19:05;;;;;;;12.53;4.80;;;;;;;4.36;60.52;101282.34;8877885;33;20262;-71
2021/04/04 04:24:12;;;;;;;10.90;4.53;;;;;;;4.51;60.69;101274.66;8855014;33;20222;-73
2021/04/04 04:29:16;;;;;;;9.82;4.75;;;;;;;4.53;60.29;101279.00;8854456;33;21537;-73
2021/04/04 04:34:21;;;;;;;12.73;4.20;;;;;;;4.47;60.12;101278.38;8864888;33;20252;-72
2021/04/04 04:39:24;;;;;;;11.87;4.30;;;;;;;4.46;60.15;101273.97;8854237;33;20837;-73
2021/04/04 04:44:29;;;;;;;10.60;4.60;;;;;;;4.50;60.29;101275.56;8853619;33;20249;-72
2021/04/04 04:49:32;;;;;;;12.07;4.90;;;;;;;4.44;60.85;101273.19;8854455;33;20820;-72
2021/04/04 04:54:35;;;;;;;14.33;5.03;;;;;;;4.47;60.00;101271.28;8854328;33;20218;-72
2021/04/04 04:59:38;;;;;;;10.17;4.10;;;;;;;4.23;58.60;101269.63;8852421;33;21522;-72
2021/04/04 05:04:41;;;;;;;13.83;4.57;;;;;;;4.39;57.57;101270.72;8853215;33;20294;-72
2021/04/04 05:09:44;;;;;;;10.20;4.70;;;;;;;4.40;56.97;101262.66;8853559;33;20238;-72
2021/04/04 05:14:46;;;;;;;11.10;4.00;;;;;;;4.40;57.17;101262.66;8854096;33;21558;-72
2021/04/04 05:19:50;;;;;;;10.32;3.80;;;;;;;4.46;56.62;101264.22;8853344;33;20221;-72
2021/04/04 05:24:52;;;;;;;8.85;3.63;;;;;;;4.25;57.46;101265.97;8853771;33;20266;-72
2021/04/04 05:29:58;;;;;;;10.52;4.53;;;;;;;3.88;58.79;101263.91;8851614;33;20234;-72
2021/04/04 05:35:02;;;;;;;11.38;4.38;;;;;;;4.20;57.77;101256.41;8853402;33;20693;-72
2021/04/04 05:40:05;;;;;;;13.40;3.70;;;;;;;3.89;57.43;101262.97;8852893;33;20766;-72
2021/04/04 05:45:11;;;;;;;10.90;4.27;;;;;;;3.89;57.90;101255.84;8853493;33;20727;-72
2021/04/04 05:50:22;;;;;;;14.82;4.53;;;;;;;4.21;57.31;101261.69;8851497;33;20221;-72
2021/04/04 05:55:36;;;;;;;7.03;3.87;;;;;;;4.31;56.92;101254.22;8852996;33;20229;-72
2021/04/04 06:00:45;;;;;;;15.27;4.57;;;;;;;4.19;56.72;101260.88;8852399;33;20264;-72
2021/04/04 06:06:24;;;;;;;7.13;3.50;;;;;;;4.26;55.44;101256.19;8852981;33;20222;-72
2021/04/04 06:11:33;;;;;;;11.47;3.57;;;;;;;4.11;56.08;101255.00;8825156;33;20245;-72
2021/04/04 06:16:46;;;;;;;8.77;4.07;;;;;;;4.64;55.81;101248.41;8852067;33;20744;-72
2021/04/04 06:22:00;;;;;;;7.23;3.80;;;;;;;4.75;55.26;101248.81;8846830;33;20264;-73
2021/04/04 06:27:11;;;;;;;7.72;3.72;;;;;;;4.96;55.13;101247.84;8831275;33;20260;-73
2021/04/04 06:32:20;;;;;;;8.52;3.38;;;;;;;4.93;54.87;101249.81;8838855;33;20222;-72
2021/04/04 06:38:03;;;;;;;10.15;3.50;;;;;;;5.03;54.63;101260.03;8798594;33;20238;-72
2021/04/04 06:43:18;;;;;;;11.73;4.35;;;;;;;4.50;56.23;101259.59;8794218;33;20230;-72
2021/04/04 06:48:42;;;;;;;14.15;3.95;;;;;;;4.47;56.90;101260.63;8793084;33;20353;-72
2021/04/04 06:54:06;;;;;;;16.63;6.30;;;;;;;5.19;56.23;101254.88;8815273;33;20885;-72
2021/04/04 06:59:17;;;;;;;13.63;6.80;;;;;;;5.41;56.54;101260.09;8850336;33;20252;-72
2021/04/04 07:04:24;;;;;;;8.40;3.45;;;;;;;5.67;55.16;101256.22;8839108;33;21560;-72
2021/04/04 07:09:55;;;;;;;9.73;3.72;;;;;;;6.11;56.34;101249.72;8850182;33;20230;-71
2021/04/04 07:15:14;;;;;;;11.60;3.78;;;;;;;5.57;57.89;101243.41;8848660;33;20226;-71
2021/04/04 07:20:34;;;;;;;8.57;3.22;;;;;;;5.24;59.29;101263.53;8850085;33;20737;-71
2021/04/04 07:25:42;;;;;;;10.60;3.55;;;;;;;5.77;56.85;101264.66;8852307;33;20230;-71
2021/04/04 07:30:52;;;;;;;5.30;2.72;;;;;;;6.61;55.55;101254.38;8855303;33;20217;-72
2021/04/04 07:36:05;;;;;;;9.63;3.08;;;;;;;5.95;54.50;101253.16;8828537;33;20234;-71
2021/04/04 07:41:13;;;;;;;4.82;2.60;;;;;;;6.32;55.39;101258.47;8822677;33;20257;-71
2021/04/04 07:46:23;;;;;;;5.95;3.00;;;;;;;6.86;54.10;101262.00;8823562;33;20223;-71
2021/04/04 07:51:31;;;;;;;7.75;3.47;;;;;;;6.91;55.25;101259.09;8822325;33;20325;-72
2021/04/04 07:56:44;;;;;;;5.68;2.80;;;;;;;6.51;58.30;101274.44;8820938;33;20321;-72
2021/04/04 08:01:53;;;;;;;6.18;3.15;;;;;;;6.07;62.25;101269.50;8825264;33;20227;-72
2021/04/04 08:07:03;;;;;;;4.93;3.10;;;;;;;5.92;61.97;101271.06;8823062;33;21311;-72
2021/04/04 08:12:20;;;;;;;8.30;3.78;;;;;;;6.14;63.12;101270.91;8849813;33;20226;-71
2021/04/04 08:17:23;;;;;;;7.75;3.55;;;;;;;6.51;63.52;101266.44;8846184;32;22029;-72
2021/04/04 08:22:31;;;;;;;4.00;2.60;;;;;;;5.92;61.58;101263.06;8822785;33;20299;-72
2021/04/04 08:27:41;;;;;;;4.28;3.08;;;;;;;5.68;64.38;101265.13;8821607;33;20241;-71
2021/04/04 08:32:49;;;;;;;9.50;3.30;;;;;;;5.79;63.98;101264.59;8826016;33;20280;-72
2021/04/04 08:37:55;;;;;;;6.20;3.00;;;;;;;5.35;65.84;101271.06;8823917;33;20226;-72
2021/04/04 08:42:58;;;;;;;8.95;3.17;;;;;;;6.02;67.09;101271.50;8878152;33;20217;-71
2021/04/04 08:48:02;;;;;;;6.25;3.22;;;;;;;6.36;63.72;101271.59;8912641;33;21244;-71
2021/04/04 08:53:23;;;;;;;7.97;3.05;;;;;;;6.81;62.71;101280.91;8913960;33;20712;-71
2021/04/04 08:58:36;;;;;;;8.30;3.00;;;;;;;6.08;61.47;101269.41;8912468;33;20302;-71
2021/04/04 09:03:42;;;;;;;8.57;2.88;;;;;;;5.73;62.38;101263.97;8887154;33;20214;-72
2021/04/04 09:08:44;;;;;;;5.43;2.75;;;;;;;5.77;62.37;101251.34;8881508;33;20647;-71
2021/04/04 09:13:49;;;;;;;4.88;3.30;;;;;;;5.75;62.24;101253.22;8899533;33;20637;-71
2021/04/04 09:18:53;;;;;;;6.20;3.35;;;;;;;6.11;60.91;101252.38;8914029;33;20221;-72
2021/04/04 09:24:01;;;;;;;6.28;3.20;;;;;;;6.50;60.94;101259.34;8861813;33;20248;-72
2021/04/04 09:29:05;;;;;;;7.07;3.70;;;;;;;6.96;60.72;101252.56;8891492;33;20229;-72
2021/04/04 09:34:13;;;;;;;5.50;2.80;;;;;;;7.02;57.80;101256.72;8867458;33;20226;-71
2021/04/04 09:39:18;;;;;;;6.07;3.30;;;;;;;6.68;58.70;101241.56;8854202;33;20226;-72
2021/04/04 09:44:29;;;;;;;7.78;2.95;;;;;;;7.02;58.83;101246.91;8869293;33;20222;-72
2021/04/04 09:49:37;;;;;;;5.38;3.63;;;;;;;6.24;58.95;101242.84;8860180;33;20308;-70
2021/04/04 09:54:55;;;;;;;6.45;3.22;;;;;;;6.34;59.52;101248.59;8865088;33;20304;-71
2021/04/04 09:59:59;;;;;;;8.25;4.55;;;;;;;5.91;62.28;101242.69;8906823;33;20229;-70
2021/04/04 10:05:02;;;;;;;8.65;4.18;;;;;;;6.22;61.68;101241.19;8887422;33;20224;-70
2021/04/04 10:10:06;;;;;;;7.65;4.30;;;;;;;6.22;62.23;101242.03;8912367;33;20260;-70
2021/04/04 10:15:12;;;;;;;7.25;4.22;;;;;;;6.17;62.02;101236.97;8882066;33;20317;-71
2021/04/04 10:20:14;;;;;;;9.05;3.30;;;;;;;5.30;62.98;101232.22;8881545;33;20621;-71
2021/04/04 10:25:17;;;;;;;6.72;3.50;;;;;;;5.93;62.58;101225.66;8909157;33;20221;-72
2021/04/04 10:30:23;;;;;;;8.02;3.60;;;;;;;6.09;60.88;101214.28;8886065;33;20318;-72
2021/04/04 10:35:31;;;;;;;9.57;4.22;;;;;;;5.67;61.05;101216.22;8780802;33;20704;-72
2021/04/04 10:40:48;;;;;;;6.65;3.28;;;;;;;5.02;63.63;101221.00;8793381;33;20716;-72
2021/04/04 10:46:01;;;;;;;7.75;3.63;;;;;;;5.11;64.18;101214.41;8852531;33;20880;-72
2021/04/04 10:51:04;;;;;;;7.15;3.85;;;;;;;5.05;63.47;101207.56;8852443;33;20230;-72
2021/04/04 10:56:09;;;;;;;6.53;3.58;;;;;;;5.52;62.47;101197.47;8852637;33;20811;-72
2021/04/04 11:01:14;;;;;;;7.90;3.15;;;;;;;5.26;62.99;101184.38;8854297;33;20731;-72
2021/04/04 11:06:16;;;;;;;11.10;4.03;;;;;;;5.78;61.29;101178.41;8857865;33;20267;-72
2021/04/04 11:11:20;;;;;;;6.70;3.40;;;;;;;5.45;62.29;101175.53;8857120;33;20226;-72
2021/04/04 11:16:25;;;;;;;10.48;4.25;;;;;;;5.69;61.72;101162.84;8856821;33;20230;-72
2021/04/04 11:21:34;;;;;;;9.07;3.97;;;;;;;6.05;61.28;101159.31;8855742;33;20324;-72
2021/04/04 11:26:37;;;;;;;8.52;3.22;;;;;;;5.53;61.15;101159.19;8856941;33;20227;-72
2021/04/04 11:31:44;;;;;;;8.35;3.63;;;;;;;5.67;61.81;101148.72;8857279;33;20221;-71
2021/04/04 11:36:46;;;;;;;10.15;3.70;;;;;;;5.54;61.75;101139.59;8916377;33;20684;-71
2021/04/04 11:41:52;;;;;;;9.13;4.45;;;;;;;5.10;63.33;101147.88;8916207;33;20225;-72
2021/04/04 11:46:57;;;;;;;16.77;3.83;;;;;;;4.78;64.84;101153.72;8916281;33;20720;-71
2021/04/04 11:52:01;;;;;;;6.47;4.03;;;;;;;5.01;64.33;101147.38;8916003;33;20221;-71
2021/04/04 11:57:03;;;;;;;11.80;4.13;;;;;;;5.52;62.58;101133.50;8915623;33;20226;-72
2021/04/04 12:02:07;;;;;;;7.38;3.70;;;;;;;5.72;61.44;101130.72;8915471;33;20706;-72
2021/04/04 12:07:11;;;;;;;7.93;3.58;;;;;;;6.46;60.36;101127.00;8915305;33;20237;-72
2021/04/04 12:12:15;;;;;;;9.25;3.65;;;;;;;6.70;59.60;101109.69;8916297;33;20229;-72
2021/04/04 12:17:20;;;;;;;10.05;3.58;;;;;;;5.87;61.76;101115.75;8915581;33;20213;-71
2021/04/04 12:22:39;;;;;;;8.48;3.60;;;;;;;6.03;61.05;101084.72;8890037;33;20217;-72
2021/04/04 12:27:44;;;;;;;6.70;3.55;;;;;;;5.34;61.92;101084.59;8915120;33;20232;-72
2021/04/04 12:32:47;;;;;;;9.40;4.03;;;;;;;5.42;61.74;101071.78;8871397;33;20630;-71
2021/04/04 12:37:49;;;;;;;7.13;3.55;;;;;;;5.75;61.44;101077.25;8862824;33;20228;-71
2021/04/04 12:42:57;;;;;;;6.53;3.13;;;;;;;5.54;61.79;101059.66;8870862;33;20267;-71
2021/04/04 12:48:01;;;;;;;9.73;4.20;;;;;;;5.86;60.62;101064.22;8883841;33;20730;-71
2021/04/04 12:53:03;;;;;;;7.38;3.70;;;;;;;6.51;59.45;101050.22;8885205;33;20230;-72
2021/04/04 12:58:07;;;;;;;5.28;3.17;;;;;;;6.53;58.29;101043.88;8871057;33;21430;-72
2021/04/04 13:03:12;;;;;;;5.30;3.42;;;;;;;6.94;57.18;101026.53;8890513;33;20279;-71
2021/04/04 13:08:18;;;;;;;3.80;2.72;;;;;;;6.38;57.66;101026.84;8908267;33;20233;-71
2021/04/04 13:13:25;;;;;;;4.45;2.60;;;;;;;6.41;57.53;101020.47;8895846;33;20791;-72
2021/04/04 13:18:31;;;;;;;4.32;2.10;;;;;;;6.43;57.23;101015.94;8889035;33;20238;-72
2021/04/04 13:23:36;;;;;;;2.83;2.38;;;;;;;6.31;57.84;101013.94;8888270;33;20225;-72
2021/04/04 13:28:38;;;;;;;4.65;2.17;;;;;;;6.31;58.05;100990.78;8901412;33;20623;-72
2021/04/04 13:33:44;;;;;;;4.88;2.30;;;;;;;6.18;56.94;100989.69;8913269;33;20213;-71
2021/04/04 13:38:50;;;;;;;4.72;2.65;;;;;;;6.35;56.91;100983.47;8912837;33;20229;-71
2021/04/04 13:43:55;;;;;;;4.63;2.45;;;;;;;6.52;56.25;100975.38;8913643;33;20222;-70
2021/04/04 13:49:02;;;;;;;7.38;2.70;;;;;;;6.17;57.42;100975.50;8906792;33;21204;-71
2021/04/04 13:54:11;;;;;;;4.53;3.00;;;;;;;5.73;59.47;100960.03;8861004;33;20226;-71
2021/04/04 13:59:19;;;;;;;6.55;3.00;;;;;;;5.91;58.03;100936.00;8852885;33;20230;-70
2021/04/04 14:04:24;;;;;;;5.28;2.72;;;;;;;6.26;56.71;100931.47;8902561;33;20759;-71
2021/04/04 14:09:33;;;;;;;5.70;2.70;;;;;;;6.14;57.57;100930.31;8901199;33;20896;-71
2021/04/04 14:14:38;;;;;;;3.22;2.17;;;;;;;5.88;57.72;100942.38;8864673;33;20270;-71
2021/04/04 14:19:42;;;;;;;4.82;2.70;;;;;;;6.27;57.26;100917.16;8896686;33;20222;-72
2021/04/04 14:24:44;;;;;;;4.88;2.47;;;;;;;6.35;56.49;100909.59;8910966;33;20217;-72
2021/04/04 14:29:46;;;;;;;4.30;2.85;;;;;;;6.25;57.17;100911.03;8910628;33;20564;-73
2021/04/04 14:34:49;;;;;;;4.38;3.25;;;;;;;6.17;57.65;100903.47;8888652;33;20239;-72
2021/04/04 14:39:51;;;;;;;5.15;2.70;;;;;;;5.68;58.31;100892.75;8917460;33;20298;-71
2021/04/04 14:44:53;;;;;;;5.32;3.90;;;;;;;6.06;57.70;100878.31;8905311;33;20251;-72
2021/04/04 14:49:56;;;;;;;6.03;4.30;;;;;;;5.67;58.19;100867.03;8887438;33;20241;-71
2021/04/04 14:54:59;;;;;;;10.02;5.55;;;;;;;6.01;57.61;100873.25;8904053;33;20217;-71
2021/04/04 15:00:01;;;;;;;7.60;3.78;;;;;;;6.02;57.80;100853.63;8915914;33;20228;-71
2021/04/04 15:05:07;;;;;;;9.00;4.75;;;;;;;5.70;58.09;100844.69;8917211;33;20348;-71
2021/04/04 15:10:10;;;;;;;8.38;4.75;;;;;;;5.87;57.87;100843.78;8891688;33;20641;-72
2021/04/04 15:15:13;;;;;;;5.53;3.45;;;;;;;5.49;59.02;100847.56;8883857;33;20753;-72
2021/04/04 15:20:17;;;;;;;11.05;4.25;;;;;;;5.68;58.39;100827.94;8906569;33;20239;-71
2021/04/04 15:25:23;;;;;;;8.57;3.92;;;;;;;6.05;57.91;100817.94;8916860;33;20237;-71
2021/04/04 15:30:29;;;;;;;5.30;2.65;;;;;;;6.11;56.71;100822.91;8890700;33;20752;-71
2021/04/04 15:35:35;;;;;;;6.15;3.67;;;;;;;5.50;58.31;100827.09;8914176;33;20253;-71
2021/04/04 15:40:40;;;;;;;6.07;3.47;;;;;;;5.66;58.70;100804.00;8914661;33;20222;-71
2021/04/04 15:45:44;;;;;;;8.25;4.30;;;;;;;6.03;58.41;100803.81;8914576;33;20223;-71
2021/04/04 15:50:48;;;;;;;8.45;4.20;;;;;;;5.53;58.24;100797.63;8915633;33;20304;-71
2021/04/04 15:55:50;;;;;;;8.90;4.00;;;;;;;5.65;58.18;100796.97;8918827;33;20225;-71
2021/04/04 16:00:52;;;;;;;9.10;4.85;;;;;;;5.85;58.58;100785.22;8915054;33;20233;-72
2021/04/04 16:05:55;;;;;;;4.18;3.05;;;;;;;5.87;57.30;100780.66;8916614;33;20884;-72
2021/04/04 16:11:04;;;;;;;7.97;4.50;;;;;;;5.79;57.19;100785.56;8915011;33;20244;-71
2021/04/04 16:16:06;;;;;;;11.82;4.70;;;;;;;6.25;56.60;100782.13;8881341;33;20222;-72
2021/04/04 16:21:09;;;;;;;10.73;4.82;;;;;;;6.19;55.65;100767.31;8854942;33;21895;-72
2021/04/04 16:26:25;;;;;;;7.13;4.80;;;;;;;5.72;56.74;100746.84;8856308;33;21502;-72
2021/04/04 16:31:27;;;;;;;11.50;5.13;;;;;;;6.04;56.17;100741.53;8853596;33;21459;-73
2021/04/04 16:36:30;;;;;;;9.05;4.85;;;;;;;6.12;56.02;100737.47;8853980;33;20275;-72
2021/04/04 16:41:33;;;;;;;8.95;4.60;;;;;;;6.06;55.87;100748.50;8854690;33;20238;-72
2021/04/04 16:46:35;;;;;;;9.50;5.75;;;;;;;5.34;57.97;100735.59;8856454;33;20274;-72
2021/04/04 16:51:40;;;;;;;9.07;5.68;;;;;;;5.13;58.31;100741.13;8914432;33;20214;-72
2021/04/04 16:56:42;;;;;;;8.05;3.83;;;;;;;5.63;57.39;100726.88;8913100;33;20213;-72
2021/04/04 17:01:47;;;;;;;12.93;4.63;;;;;;;5.68;57.61;100711.50;8886340;33;20241;-73
2021/04/04 17:06:50;;;;;;;6.28;3.75;;;;;;;5.21;58.09;100704.31;8891882;33;20233;-72
2021/04/04 17:11:53;;;;;;;10.48;5.45;;;;;;;5.72;57.52;100693.53;8880720;33;20217;-72
2021/04/04 17:16:55;;;;;;;8.57;4.90;;;;;;;5.54;57.29;100682.09;8876909;33;20692;-72
2021/04/04 17:21:58;;;;;;;5.82;3.63;;;;;;;5.35;57.69;100657.38;8880528;33;20309;-72
2021/04/04 17:27:05;;;;;;;14.43;7.15;;;;;;;5.37;58.40;100653.69;8851322;33;20274;-72
2021/04/04 17:32:08;;;;;;;12.43;5.65;;;;;;;5.30;58.63;100641.69;8853219;33;20233;-72
2021/04/04 17:37:12;;;;;;;11.43;5.22;;;;;;;5.31;58.93;100655.84;8853745;33;20226;-73
2021/04/04 17:42:14;;;;;;;9.77;5.25;;;;;;;5.53;58.58;100659.03;8852810;33;20230;-72
2021/04/04 17:47:16;;;;;;;11.20;4.72;;;;;;;5.62;58.32;100671.00;8852644;33;20678;-72
2021/04/04 17:52:19;;;;;;;6.28;3.65;;;;;;;5.38;59.14;100652.78;8851904;33;20218;-73
2021/04/04 17:57:21;;;;;;;7.20;3.85;;;;;;;5.26;59.49;100622.31;8852285;33;20269;-72
2021/04/04 18:02:24;;;;;;;8.93;4.72;;;;;;;5.52;59.13;100616.50;8852506;33;20237;-72
2021/04/04 18:07:45;;;;;;;5.50;3.38;;;;;;;5.48;58.86;100615.81;8854601;33;20238;-72
2021/04/04 18:12:47;;;;;;;7.93;5.32;;;;;;;5.43;59.72;100617.84;8912649;33;20221;-72
2021/04/04 18:17:49;;;;;;;10.32;5.82;;;;;;;5.21;60.00;100594.22;8911921;33;20730;-71
2021/04/04 18:22:53;;;;;;;7.53;5.43;;;;;;;5.13;60.10;100601.78;8911795;33;20221;-71
2021/04/04 18:27:55;;;;;;;7.90;5.03;;;;;;;5.29;59.90;100605.31;8910970;33;20232;-71
2021/04/04 18:32:58;;;;;;;10.80;5.55;;;;;;;5.25;60.31;100590.47;8912067;33;20233;-71
2021/04/04 18:38:01;;;;;;;9.18;5.38;;;;;;;5.09;60.91;100574.47;8914601;33;20297;-71
2021/04/04 18:43:04;;;;;;;12.43;5.38;;;;;;;5.36;60.13;100565.88;8910643;33;20240;-72
2021/04/04 18:48:08;;;;;;;8.23;5.13;;;;;;;5.35;60.12;100565.03;8914624;33;20282;-71
2021/04/04 18:53:12;;;;;;;10.20;5.13;;;;;;;5.44;60.20;100567.16;8918682;33;20524;-72
2021/04/04 18:58:14;;;;;;;7.60;5.38;;;;;;;4.78;62.26;100580.56;8911522;33;20297;-71
2021/04/04 19:03:17;;;;;;;9.40;5.20;;;;;;;4.93;62.00;100544.25;8911109;33;20225;-71
2021/04/04 19:08:20;;;;;;;14.57;6.78;;;;;;;4.86;61.87;100535.78;8911288;33;20638;-71
2021/04/04 19:13:22;;;;;;;12.52;5.93;;;;;;;4.94;61.62;100524.72;8911362;33;20722;-71
2021/04/04 19:18:25;;;;;;;9.85;4.35;;;;;;;4.93;61.48;100501.66;8864341;33;20229;-72
2021/04/04 19:23:28;;;;;;;10.40;3.60;;;;;;;4.80;61.31;100497.03;8917478;33;20992;-71
2021/04/04 19:28:30;;;;;;;9.93;6.07;;;;;;;4.96;61.20;100506.81;8916348;33;20236;-71
2021/04/04 19:33:32;;;;;;;10.57;6.22;;;;;;;5.06;60.98;100486.75;8893106;33;20726;-71
2021/04/04 19:38:55;;;;;;;8.82;4.75;;;;;;;4.65;61.72;100478.41;8915220;33;20336;-71
2021/04/04 19:43:58;;;;;;;12.30;6.82;;;;;;;4.88;61.46;100471.78;8883361;33;20324;-71
2021/04/04 19:49:00;;;;;;;8.13;5.03;;;;;;;4.69;61.76;100478.16;8855029;33;20915;-71
2021/04/04 19:54:05;;;;;;;13.53;6.50;;;;;;;4.71;61.92;100444.31;8855601;33;20222;-71
2021/04/04 19:59:07;;;;;;;11.00;6.03;;;;;;;4.70;61.95;100437.28;8855036;33;20258;-71
2021/04/04 20:04:09;;;;;;;12.63;6.18;;;;;;;4.29;63.00;100413.81;8855145;33;20222;-72
2021/04/04 20:09:12;;;;;;;13.90;7.85;;;;;;;4.49;62.66;100409.19;8854826;33;20230;-72
2021/04/04 20:14:14;;;;;;;10.20;6.38;;;;;;;4.46;62.34;100383.63;8867979;33;20753;-72
2021/04/04 20:19:17;;;;;;;17.00;8.13;;;;;;;4.70;61.64;100362.75;8915169;33;20272;-72
2021/04/04 20:24:20;;;;;;;13.68;7.03;;;;;;;4.48;62.32;100362.28;8916939;33;20310;-72
2021/04/04 20:29:22;;;;;;;14.88;6.85;;;;;;;4.53;62.06;100355.75;8877578;33;20225;-71
2021/04/04 20:34:26;;;;;;;14.05;7.03;;;;;;;4.31;62.83;100350.78;8914227;33;20267;-71
2021/04/04 20:39:30;;;;;;;11.13;6.35;;;;;;;4.39;62.54;100359.19;8913618;33;20237;-71
2021/04/04 20:44:32;;;;;;;19.90;8.13;;;;;;;4.53;62.39;100317.66;8868646;33;20225;-71
2021/04/04 20:49:35;;;;;;;23.05;12.75;;;;;;;4.40;62.76;100305.03;8853557;33;20260;-71
2021/04/04 20:54:37;;;;;;;15.68;7.05;;;;;;;4.35;62.92;100287.63;8877393;33;20221;-71
2021/04/04 20:59:40;;;;;;;12.13;5.82;;;;;;;3.95;64.00;100290.72;8913501;33;20591;-71
2021/04/04 21:04:42;;;;;;;10.30;5.93;;;;;;;4.14;63.57;100279.03;8913875;33;20352;-71
2021/04/04 21:09:45;;;;;;;12.70;7.43;;;;;;;4.06;63.77;100282.16;8912600;33;20225;-71
2021/04/04 21:14:48;;;;;;;18.80;7.60;;;;;;;4.10;63.73;100262.41;8909743;33;20238;-72
2021/04/04 21:19:50;;;;;;;10.75;5.45;;;;;;;4.10;63.47;100249.13;8912731;33;20236;-71
2021/04/04 21:24:56;;;;;;;18.48;9.85;;;;;;;4.09;63.45;100246.56;8912852;33;20220;-72
2021/04/04 21:29:59;;;;;;;22.58;10.10;;;;;;;4.20;63.15;100219.34;8913869;33;20221;-72
2021/04/04 21:35:01;;;;;;;17.80;7.72;;;;;;;3.97;63.67;100224.16;8912655;33;20263;-72
2021/04/04 21:40:07;;;;;;;28.88;11.73;;;;;;;4.14;63.45;100192.19;8912762;33;20229;-72
2021/04/04 21:45:11;;;;;;;21.80;9.73;;;;;;;3.80;64.47;100179.94;8908405;33;20761;-72
2021/04/04 21:50:16;;;;;;;24.88;10.65;;;;;;;3.72;64.62;100188.34;8912687;33;20225;-71
2021/04/04 21:55:21;;;;;;;29.75;11.82;;;;;;;3.99;63.98;100169.13;8913335;33;20223;-72
2021/04/04 22:00:25;;;;;;;27.08;12.20;;;;;;;3.92;64.06;100149.16;8911644;33;20233;-71
2021/04/04 22:05:27;;;;;;;33.43;12.23;;;;;;;3.71;64.93;100141.47;8887869;33;20228;-71
2021/04/04 22:10:31;;;;;;;21.70;8.07;;;;;;;3.72;64.71;100126.38;8912331;33;20229;-71
2021/04/04 22:15:39;;;;;;;16.70;6.35;;;;;;;3.70;64.86;100130.91;8890974;33;20229;-72
2021/04/04 22:20:42;;;;;;;28.17;12.87;;;;;;;3.77;64.89;100134.09;8874823;33;20225;-72
2021/04/04 22:25:45;;;;;;;25.93;12.10;;;;;;;3.78;64.77;100114.53;8887687;33;20722;-72
2021/04/04 22:30:48;;;;;;;25.37;10.40;;;;;;;3.45;65.61;100096.91;8912179;33;20700;-71
2021/04/04 22:35:50;;;;;;;35.53;15.00;;;;;;;3.62;65.49;100087.97;8912703;33;20221;-72
2021/04/04 22:40:53;;;;;;;30.63;13.60;;;;;;;3.53;65.54;100051.34;8911889;33;20233;-72
2021/04/04 22:45:55;;;;;;;28.67;11.87;;;;;;;3.32;66.21;100062.25;8912717;33;21417;-72
2021/04/04 22:50:57;;;;;;;44.60;18.13;;;;;;;3.43;66.46;100069.59;8913704;33;20267;-72
2021/04/04 22:56:00;;;;;;;40.50;17.90;;;;;;;3.31;66.64;100035.75;8889019;33;20636;-72
2021/04/04 23:01:02;;;;;;;26.63;11.13;;;;;;;3.23;66.59;100041.50;8917505;33;20233;-72
2021/04/04 23:06:05;;;;;;;46.47;19.90;;;;;;;3.57;65.78;100010.41;8892326;33;20218;-72
2021/04/04 23:11:08;;;;;;;41.47;16.03;;;;;;;3.33;66.16;100010.00;8891335;33;20229;-72
2021/04/04 23:16:10;;;;;;;48.13;21.77;;;;;;;3.55;65.84;100009.63;8917060;33;20629;-72
2021/04/04 23:21:12;;;;;;;38.00;16.93;;;;;;;3.37;66.21;99996.44;8916459;33;20634;-72
2021/04/04 23:26:15;;;;;;;35.93;16.87;;;;;;;3.09;67.03;99983.88;8917542;33;20237;-72
2021/04/04 23:31:18;;;;;;;42.53;16.73;;;;;;;3.50;65.88;99978.00;8916463;33;20979;-72
2021/04/04 23:36:23;;;;;;;29.33;13.83;;;;;;;3.53;65.67;99983.13;8916669;33;20221;-71
2021/04/04 23:41:26;;;;;;;37.53;17.23;;;;;;;3.48;66.08;99966.59;8916019;33;20718;-71
2021/04/04 23:46:28;;;;;;;39.13;17.43;;;;;;;3.34;66.25;99942.66;8890837;33;20285;-71